Time;durP1;ratioP1;P1;durP2;ratioP2;P2;SDS_P1;SDS_P2;PMS_P1;PMS_P2;Temp;Humidity;BMP_temperature;BMP_pressure;BME280_temperature;BME280_humidity;BME280_pressure;Samples;Min_cycle;Max_cycle;Signal;HPM_P1;HPM_P2
2022/10/11 00:02:03;;;;;;;;;0.67;0.67;;;;;;;;5056704;27;9677;-76
2022/10/11 00:04:30;;;;;;;;;0.00;0.00;;;;;;;;5038578;27;9020;-76
2022/10/11 00:06:58;;;;;;;;;1.00;1.00;;;;;;;;5046457;27;8916;-76
2022/10/11 00:09:25;;;;;;;;;0.25;0.25;;;;;;;;5019325;28;8829;-76
2022/10/11 00:11:56;;;;;;;;;1.00;1.00;;;;;;;;5058627;27;8841;-76
2022/10/11 00:14:24;;;;;;;;;1.33;0.33;;;;;;;;5033925;27;8870;-76
2022/10/11 00:16:51;;;;;;;;;2.00;1.00;;;;;;;;5040015;27;8959;-76
2022/10/11 00:19:21;;;;;;;;;2.00;0.00;;;;;;;;5029345;27;8938;-76
2022/10/11 00:21:48;;;;;;;;;1.00;1.00;;;;;;;;5044351;27;9127;-76
2022/10/11 00:24:16;;;;;;;;;2.00;0.67;;;;;;;;5063808;27;9061;-76
2022/10/11 00:26:44;;;;;;;;;1.00;1.00;;;;;;;;5037425;27;8992;-76
2022/10/11 00:29:12;;;;;;;;;1.00;1.00;;;;;;;;5038693;27;9077;-76
2022/10/11 00:31:39;;;;;;;;;0.00;0.00;;;;;;;;5043799;27;9003;-76
2022/10/11 00:34:07;;;;;;;;;0.00;0.00;;;;;;;;5034749;27;9068;-77
2022/10/11 00:36:36;;;;;;;;;1.33;0.00;;;;;;;;5032919;27;9016;-76
2022/10/11 00:39:04;;;;;;;;;1.00;0.00;;;;;;;;5027219;27;9476;-76
2022/10/11 00:41:32;;;;;;;;;1.00;1.00;;;;;;;;5048782;27;9088;-76
2022/10/11 00:44:17;;;;;;;;;1.00;1.00;;;;;;;;5049940;27;8949;-76
2022/10/11 00:46:49;;;;;;;;;0.00;0.00;;;;;;;;5038767;27;9076;-76
2022/10/11 00:49:24;;;;;;;;;1.00;1.00;;;;;;;;5050019;27;8921;-75
2022/10/11 00:51:57;;;;;;;;;0.00;0.00;;;;;;;;5024727;27;9002;-77
2022/10/11 00:54:28;;;;;;;;;4.00;1.00;;;;;;;;5059856;27;8983;-78
2022/10/11 00:56:59;;;;;;;;;1.33;0.00;;;;;;;;5038667;27;9288;-76
2022/10/11 00:59:29;;;;;;;;;1.00;1.00;;;;;;;;5054798;27;9106;-76
2022/10/11 01:01:57;;;;;;;;;0.67;0.67;;;;;;;;5041691;27;9808;-76
2022/10/11 01:04:25;;;;;;;;;0.00;0.00;;;;;;;;5039929;27;9868;-74
2022/10/11 01:06:54;;;;;;;;;2.67;1.00;;;;;;;;5046361;27;9145;-76
2022/10/11 01:09:22;;;;;;;;;2.00;1.00;;;;;;;;5027661;27;9234;-75
2022/10/11 01:11:50;;;;;;;;;0.00;0.00;;;;;;;;5041508;27;9090;-76
2022/10/11 01:14:48;;;;;;;;;4.33;0.00;;;;;;;;5030408;27;9124;-77
2022/10/11 01:17:23;;;;;;;;;1.00;0.00;;;;;;;;5021865;27;9225;-76
2022/10/11 01:20:08;;;;;;;;;1.00;1.00;;;;;;;;5035754;27;10089;-76
2022/10/11 01:23:16;;;;;;;;;1.00;1.00;;;;;;;;5022795;28;9961;-76
2022/10/11 01:25:56;;;;;;;;;0.00;0.00;;;;;;;;5038171;27;9255;-76
2022/10/11 01:28:38;;;;;;;;;0.00;0.00;;;;;;;;5035698;28;9203;-76
2022/10/11 01:31:14;;;;;;;;;2.33;1.00;;;;;;;;5020098;27;9187;-76
2022/10/11 01:33:44;;;;;;;;;2.00;0.00;;;;;;;;5040595;27;9380;-76
2022/10/11 01:36:18;;;;;;;;;1.00;1.00;;;;;;;;5036088;27;9793;-76
2022/10/11 01:38:49;;;;;;;;;0.00;0.00;;;;;;;;5026185;27;9264;-76
2022/10/11 01:41:21;;;;;;;;;0.00;0.00;;;;;;;;5031166;27;9303;-76
2022/10/11 01:43:50;;;;;;;;;1.00;1.00;;;;;;;;5029294;27;10210;-76
2022/10/11 01:46:20;;;;;;;;;0.00;0.00;;;;;;;;5026050;27;9458;-76
2022/10/11 01:48:49;;;;;;;;;0.00;0.00;;;;;;;;5063735;27;9446;-77
2022/10/11 01:51:18;;;;;;;;;2.00;0.00;;;;;;;;5026421;27;9371;-76
2022/10/11 01:54:08;;;;;;;;;0.00;0.00;;;;;;;;5046788;27;10201;-76
2022/10/11 01:57:15;;;;;;;;;2.00;0.50;;;;;;;;5031391;27;9447;-77
2022/10/11 01:59:51;;;;;;;;;0.00;0.00;;;;;;;;5040209;27;9484;-76
2022/10/11 02:02:33;;;;;;;;;0.00;0.00;;;;;;;;5127294;27;9499;-76
2022/10/11 02:05:08;;;;;;;;;1.75;0.75;;;;;;;;5031848;27;9727;-76
2022/10/11 02:07:42;;;;;;;;;1.50;0.00;;;;;;;;5026574;27;9486;-77
2022/10/11 02:10:15;;;;;;;;;1.00;1.00;;;;;;;;5021695;27;9624;-77
2022/10/11 02:12:44;;;;;;;;;1.00;1.00;;;;;;;;5021626;27;9683;-76
2022/10/11 02:15:14;;;;;;;;;3.00;0.75;;;;;;;;5041127;27;9739;-76
2022/10/11 02:17:47;;;;;;;;;1.25;1.25;;;;;;;;5022976;27;9906;-76
2022/10/11 02:20:19;;;;;;;;;0.50;0.50;;;;;;;;5036003;27;10520;-77
2022/10/11 02:22:48;;;;;;;;;0.25;0.25;;;;;;;;5031895;27;9836;-77
2022/10/11 02:25:20;;;;;;;;;1.75;1.00;;;;;;;;5025595;27;9929;-76
2022/10/11 02:27:49;;;;;;;;;1.00;1.00;;;;;;;;5034868;27;9912;-77
2022/10/11 02:30:16;;;;;;;;;0.00;0.00;;;;;;;;5035235;27;10019;-77
2022/10/11 02:32:47;;;;;;;;;1.00;1.00;;;;;;;;5041584;27;10062;-76
2022/10/11 02:35:15;;;;;;;;;2.75;2.00;;;;;;;;5040616;27;10124;-77
2022/10/11 02:37:48;;;;;;;;;2.00;1.00;;;;;;;;5062564;27;10179;-76
2022/10/11 02:40:21;;;;;;;;;0.00;0.00;;;;;;;;5028337;27;10275;-76
2022/10/11 02:42:53;;;;;;;;;3.00;1.00;;;;;;;;5047469;27;10232;-77
2022/10/11 02:45:25;;;;;;;;;1.00;1.00;;;;;;;;5052807;27;10299;-75
2022/10/11 02:47:54;;;;;;;;;3.00;1.00;;;;;;;;5031937;27;10245;-75
2022/10/11 02:50:23;;;;;;;;;0.00;0.00;;;;;;;;5040545;27;10206;-76
2022/10/11 02:52:50;;;;;;;;;1.25;1.00;;;;;;;;5027093;27;10317;-76
2022/10/11 02:55:18;;;;;;;;;3.00;1.00;;;;;;;;5034967;27;10415;-76
2022/10/11 02:57:46;;;;;;;;;0.00;0.00;;;;;;;;5054840;27;10397;-76
2022/10/11 03:00:14;;;;;;;;;2.00;1.00;;;;;;;;5037059;27;10290;-76
2022/10/11 03:02:42;;;;;;;;;1.75;1.00;;;;;;;;5043406;27;10481;-76
2022/10/11 03:05:11;;;;;;;;;1.50;0.50;;;;;;;;5050462;27;11355;-76
2022/10/11 03:07:38;;;;;;;;;0.75;0.75;;;;;;;;5027977;28;10446;-76
2022/10/11 03:10:07;;;;;;;;;4.50;1.00;;;;;;;;5016599;27;10535;-76
2022/10/11 03:12:35;;;;;;;;;2.00;0.25;;;;;;;;5044232;28;10592;-76
2022/10/11 03:15:02;;;;;;;;;0.00;0.00;;;;;;;;5042978;27;10501;-76
2022/10/11 03:17:30;;;;;;;;;0.75;0.75;;;;;;;;5031432;27;10599;-76
2022/10/11 03:19:57;;;;;;;;;2.25;1.00;;;;;;;;5052613;27;10587;-76
2022/10/11 03:22:26;;;;;;;;;1.00;1.00;;;;;;;;5044507;28;10816;-76
2022/10/11 03:24:54;;;;;;;;;0.50;0.50;;;;;;;;5041003;28;10608;-76
2022/10/11 03:27:21;;;;;;;;;0.00;0.00;;;;;;;;5049951;27;10664;-77
2022/10/11 03:29:49;;;;;;;;;1.00;1.00;;;;;;;;5051894;27;10638;-76
2022/10/11 03:32:16;;;;;;;;;1.00;1.00;;;;;;;;5031826;27;10603;-76
2022/10/11 03:34:44;;;;;;;;;1.25;1.25;;;;;;;;5031541;28;10845;-79
2022/10/11 03:37:11;;;;;;;;;1.00;1.00;;;;;;;;5017732;28;10749;-77
2022/10/11 03:39:40;;;;;;;;;1.00;1.00;;;;;;;;5041371;28;10785;-76
2022/10/11 03:42:08;;;;;;;;;2.50;1.00;;;;;;;;5044264;27;10804;-77
2022/10/11 03:44:35;;;;;;;;;1.00;1.00;;;;;;;;5048110;27;10915;-77
2022/10/11 03:47:03;;;;;;;;;0.75;0.75;;;;;;;;5046925;27;10792;-77
2022/10/11 03:49:30;;;;;;;;;1.00;1.00;;;;;;;;5048013;27;10753;-76
2022/10/11 03:51:58;;;;;;;;;2.75;2.00;;;;;;;;5034052;27;10708;-77
2022/10/11 03:54:25;;;;;;;;;1.00;1.00;;;;;;;;5045221;27;10870;-76
2022/10/11 03:56:54;;;;;;;;;1.00;1.00;;;;;;;;5042690;27;10666;-76
2022/10/11 03:59:21;;;;;;;;;2.25;0.00;;;;;;;;5069662;27;10716;-77
2022/10/11 04:01:49;;;;;;;;;1.00;1.00;;;;;;;;5048638;27;12692;-77
2022/10/11 04:04:16;;;;;;;;;2.00;1.00;;;;;;;;5043756;27;10759;-77
2022/10/11 04:06:44;;;;;;;;;3.00;2.00;;;;;;;;5043426;27;10750;-76
2022/10/11 04:09:11;;;;;;;;;1.00;1.00;;;;;;;;5024112;27;10792;-76
2022/10/11 04:11:39;;;;;;;;;1.00;1.00;;;;;;;;5014435;27;11020;-76
2022/10/11 04:14:08;;;;;;;;;3.00;1.00;;;;;;;;5032305;27;10958;-77
2022/10/11 04:16:37;;;;;;;;;1.50;1.50;;;;;;;;5053306;27;11701;-76
2022/10/11 04:19:05;;;;;;;;;1.00;1.00;;;;;;;;5039442;27;11164;-77
2022/10/11 04:21:33;;;;;;;;;0.75;0.75;;;;;;;;5043496;27;11149;-77
2022/10/11 04:24:00;;;;;;;;;1.00;1.00;;;;;;;;5022857;27;11807;-76
2022/10/11 04:26:27;;;;;;;;;2.00;1.25;;;;;;;;5046950;27;11425;-77
2022/10/11 04:28:55;;;;;;;;;4.50;1.00;;;;;;;;5025544;27;11136;-77
2022/10/11 04:31:24;;;;;;;;;2.50;1.25;;;;;;;;5047292;27;11882;-77
2022/10/11 04:33:51;;;;;;;;;2.50;1.50;;;;;;;;5044914;27;11024;-77
2022/10/11 04:36:19;;;;;;;;;2.00;2.00;;;;;;;;5034654;27;10943;-77
2022/10/11 04:38:46;;;;;;;;;0.50;0.00;;;;;;;;5041651;27;11230;-78
2022/10/11 04:41:15;;;;;;;;;2.75;1.25;;;;;;;;5039201;27;10980;-79
2022/10/11 04:43:42;;;;;;;;;2.00;1.00;;;;;;;;5039867;27;11178;-78
2022/10/11 04:46:10;;;;;;;;;1.00;1.00;;;;;;;;5021947;28;11216;-77
2022/10/11 04:48:39;;;;;;;;;0.75;0.75;;;;;;;;5034226;27;11108;-78
2022/10/11 04:51:06;;;;;;;;;0.00;0.00;;;;;;;;5051270;27;11754;-78
2022/10/11 04:53:34;;;;;;;;;1.00;1.00;;;;;;;;5050536;27;11841;-78
2022/10/11 04:56:03;;;;;;;;;1.75;1.75;;;;;;;;5033816;27;11497;-78
2022/10/11 04:58:31;;;;;;;;;2.00;1.75;;;;;;;;5032923;27;11213;-78
2022/10/11 05:00:59;;;;;;;;;2.25;2.25;;;;;;;;5023008;27;11328;-79
2022/10/11 05:03:28;;;;;;;;;2.75;1.00;;;;;;;;5031406;27;12216;-79
2022/10/11 05:05:57;;;;;;;;;1.00;1.00;;;;;;;;5031627;27;11394;-80
2022/10/11 05:08:28;;;;;;;;;2.00;1.75;;;;;;;;5054367;27;12118;-78
2022/10/11 05:10:57;;;;;;;;;1.00;1.00;;;;;;;;5018933;27;12186;-77
2022/10/11 05:13:25;;;;;;;;;1.50;1.50;;;;;;;;5045633;27;11421;-78
2022/10/11 05:15:54;;;;;;;;;2.75;1.00;;;;;;;;5038961;27;11874;-78
2022/10/11 05:18:22;;;;;;;;;1.00;1.00;;;;;;;;5043593;27;11475;-79
2022/10/11 05:20:50;;;;;;;;;2.50;1.75;;;;;;;;5017819;27;11436;-78
2022/10/11 05:23:19;;;;;;;;;1.00;1.00;;;;;;;;5056799;27;11468;-75
2022/10/11 05:25:48;;;;;;;;;1.00;1.00;;;;;;;;5023488;27;11442;-77
2022/10/11 05:28:16;;;;;;;;;2.00;2.00;;;;;;;;5042583;27;11433;-77
2022/10/11 05:30:43;;;;;;;;;1.50;1.50;;;;;;;;5034843;27;11571;-77
2022/10/11 05:33:12;;;;;;;;;1.00;1.00;;;;;;;;5040610;27;11527;-78
2022/10/11 05:35:39;;;;;;;;;1.50;1.50;;;;;;;;5026722;27;11538;-77
2022/10/11 05:38:06;;;;;;;;;1.00;1.00;;;;;;;;5031451;27;11447;-78
2022/10/11 05:40:36;;;;;;;;;2.25;2.25;;;;;;;;5039692;27;11545;-79
2022/10/11 05:43:04;;;;;;;;;2.25;2.25;;;;;;;;5049682;27;11596;-78
2022/10/11 05:45:32;;;;;;;;;3.00;1.00;;;;;;;;5080677;27;12226;-78
2022/10/11 05:47:59;;;;;;;;;3.25;2.00;;;;;;;;5027065;27;11441;-78
2022/10/11 05:50:27;;;;;;;;;2.00;2.00;;;;;;;;5032341;28;12195;-77
2022/10/11 05:52:55;;;;;;;;;3.00;1.50;;;;;;;;5041273;27;12310;-77
2022/10/11 05:55:23;;;;;;;;;2.00;2.00;;;;;;;;5031780;27;11403;-77
2022/10/11 05:57:54;;;;;;;;;1.25;1.25;;;;;;;;5029473;27;11473;-71
2022/10/11 06:00:22;;;;;;;;;1.00;1.00;;;;;;;;5050154;27;11438;-72
2022/10/11 06:02:49;;;;;;;;;2.00;2.00;;;;;;;;5043432;27;12541;-72
2022/10/11 06:05:17;;;;;;;;;1.75;1.75;;;;;;;;5056147;27;12284;-72
2022/10/11 06:07:44;;;;;;;;;2.75;1.25;;;;;;;;5052963;27;11452;-72
2022/10/11 06:10:12;;;;;;;;;1.00;1.00;;;;;;;;5036400;27;11498;-72
2022/10/11 06:12:39;;;;;;;;;2.00;1.25;;;;;;;;5005833;28;11516;-72
2022/10/11 06:15:10;;;;;;;;;2.25;1.00;;;;;;;;5044689;27;11493;-72
2022/10/11 06:17:38;;;;;;;;;1.25;1.25;;;;;;;;5025565;27;11559;-72
2022/10/11 06:20:07;;;;;;;;;2.00;1.00;;;;;;;;5032088;27;11443;-72
2022/10/11 06:22:34;;;;;;;;;2.00;2.00;;;;;;;;5020042;27;12304;-72
2022/10/11 06:25:01;;;;;;;;;2.00;2.00;;;;;;;;5035811;27;11472;-73
2022/10/11 06:27:29;;;;;;;;;3.00;3.00;;;;;;;;5021077;27;11495;-73
2022/10/11 06:29:57;;;;;;;;;7.25;4.00;;;;;;;;5030253;27;11566;-74
2022/10/11 06:32:26;;;;;;;;;2.25;2.25;;;;;;;;5040892;27;11503;-73
2022/10/11 06:34:53;;;;;;;;;4.50;4.00;;;;;;;;5120392;27;11620;-73
2022/10/11 06:37:21;;;;;;;;;3.50;3.50;;;;;;;;5034945;27;11519;-73
2022/10/11 06:39:49;;;;;;;;;5.00;5.00;;;;;;;;5025096;27;11620;-76
2022/10/11 06:42:17;;;;;;;;;7.25;5.50;;;;;;;;5014874;27;11511;-73
2022/10/11 06:44:44;;;;;;;;;8.00;4.00;;;;;;;;5027257;27;11526;-73
2022/10/11 06:47:11;;;;;;;;;5.50;5.50;;;;;;;;5028800;27;11484;-72
2022/10/11 06:49:41;;;;;;;;;4.00;4.00;;;;;;;;5046240;27;11484;-73
2022/10/11 06:52:09;;;;;;;;;8.00;7.00;;;;;;;;5026974;27;11461;-72
2022/10/11 06:54:37;;;;;;;;;9.25;7.00;;;;;;;;5025614;27;12297;-76
2022/10/11 06:57:05;;;;;;;;;10.00;6.00;;;;;;;;5018500;27;13849;-77
2022/10/11 06:59:33;;;;;;;;;9.50;7.00;;;;;;;;5047493;27;11548;-79
2022/10/11 07:02:00;;;;;;;;;5.50;5.50;;;;;;;;5001708;28;11557;-76
2022/10/11 07:04:28;;;;;;;;;9.25;6.50;;;;;;;;5048789;28;11440;-74
2022/10/11 07:06:57;;;;;;;;;14.25;7.75;;;;;;;;5030949;28;11468;-74
2022/10/11 07:09:25;;;;;;;;;7.00;5.50;;;;;;;;5020224;28;12264;-74
2022/10/11 07:11:53;;;;;;;;;7.00;7.00;;;;;;;;5027279;28;11420;-74
2022/10/11 07:14:21;;;;;;;;;7.00;7.00;;;;;;;;5048626;28;11427;-74
2022/10/11 07:16:49;;;;;;;;;8.00;6.75;;;;;;;;5048684;27;11582;-74
2022/10/11 07:19:17;;;;;;;;;6.00;6.00;;;;;;;;5024495;27;11442;-73
2022/10/11 07:21:44;;;;;;;;;6.00;6.00;;;;;;;;5022195;27;11442;-75
2022/10/11 07:24:13;;;;;;;;;4.75;3.25;;;;;;;;5021039;27;11500;-75
2022/10/11 07:26:41;;;;;;;;;6.00;6.00;;;;;;;;5021918;27;11446;-76
2022/10/11 07:29:10;;;;;;;;;8.00;6.00;;;;;;;;5044180;27;11557;-76
2022/10/11 07:31:38;;;;;;;;;6.50;6.50;;;;;;;;5045177;27;11543;-75
2022/10/11 07:34:06;;;;;;;;;6.00;4.00;;;;;;;;5032226;27;11436;-75
2022/10/11 07:36:34;;;;;;;;;12.00;7.50;;;;;;;;5023735;27;11465;-77
2022/10/11 07:39:02;;;;;;;;;8.75;8.25;;;;;;;;5035475;27;11459;-76
2022/10/11 07:41:35;;;;;;;;;10.00;8.00;;;;;;;;5032827;27;11462;-76
2022/10/11 07:44:03;;;;;;;;;4.50;4.50;;;;;;;;5032636;27;11956;-76
2022/10/11 07:46:30;;;;;;;;;8.25;7.00;;;;;;;;5035426;27;11436;-76
2022/10/11 07:48:58;;;;;;;;;4.75;4.75;;;;;;;;5035402;27;11430;-76
2022/10/11 07:51:26;;;;;;;;;5.00;4.00;;;;;;;;5043930;27;11143;-76
2022/10/11 07:53:55;;;;;;;;;7.50;4.00;;;;;;;;5038065;27;11234;-77
2022/10/11 07:56:24;;;;;;;;;6.00;4.00;;;;;;;;5057559;27;11501;-76
2022/10/11 07:58:54;;;;;;;;;9.50;5.00;;;;;;;;5035537;27;10997;-76
2022/10/11 08:01:22;;;;;;;;;10.00;5.50;;;;;;;;5036173;27;11009;-79
2022/10/11 08:03:49;;;;;;;;;8.00;4.50;;;;;;;;5047555;27;10974;-76
2022/10/11 08:09:08;;;;;;;;;3.00;2.00;;;;;;;;5035136;27;10691;-75
2022/10/11 08:11:37;;;;;;;;;5.75;3.25;;;;;;;;5022230;27;10835;-75
2022/10/11 08:14:10;;;;;;;;;5.00;4.50;;;;;;;;5025933;27;10701;-75
2022/10/11 08:16:38;;;;;;;;;5.00;3.25;;;;;;;;5037059;27;10545;-75
2022/10/11 08:49:32;;;;;;;;;3.50;3.50;;;;;;;;5053619;27;9764;-75
2022/10/11 08:52:03;;;;;;;;;5.25;3.25;;;;;;;;5045308;27;9632;-76
2022/10/11 08:54:37;;;;;;;;;2.25;2.00;;;;;;;;5048667;27;9442;-75
2022/10/11 08:57:06;;;;;;;;;2.67;2.00;;;;;;;;5046086;27;9495;-76
2022/10/11 08:59:39;;;;;;;;;2.67;1.33;;;;;;;;5029762;27;9282;-76
2022/10/11 09:02:17;;;;;;;;;1.00;1.00;;;;;;;;5048011;27;9200;-76
2022/10/11 09:04:46;;;;;;;;;1.67;1.67;;;;;;;;5034550;27;8989;-76
2022/10/11 09:07:22;;;;;;;;;2.00;2.00;;;;;;;;5023211;27;8979;-75
2022/10/11 09:10:04;;;;;;;;;4.67;2.00;;;;;;;;5051238;27;8955;-75
2022/10/11 09:12:45;;;;;;;;;2.00;1.00;;;;;;;;5015955;27;8928;-76
2022/10/11 09:15:34;;;;;;;;;2.25;2.25;;;;;;;;5024176;27;8869;-73
2022/10/11 09:18:15;;;;;;;;;4.00;2.75;;;;;;;;5032974;27;9707;-75
2022/10/11 09:20:56;;;;;;;;;4.00;2.00;;;;;;;;5048345;27;8827;-75
2022/10/11 09:23:44;;;;;;;;;2.50;2.00;;;;;;;;5050805;27;8846;-75
2022/10/11 09:26:17;;;;;;;;;3.50;2.00;;;;;;;;5053396;27;8962;-75
2022/10/11 09:28:51;;;;;;;;;2.25;2.25;;;;;;;;5051676;27;8843;-75
2022/10/11 09:31:19;;;;;;;;;2.00;1.00;;;;;;;;5058387;27;8835;-75
2022/10/11 09:33:47;;;;;;;;;5.00;2.00;;;;;;;;5050009;27;8860;-74
2022/10/11 09:36:22;;;;;;;;;1.75;1.75;;;;;;;;5057537;27;8843;-74
2022/10/11 09:38:54;;;;;;;;;1.00;1.00;;;;;;;;5056074;27;8834;-77
2022/10/11 09:41:29;;;;;;;;;1.00;1.00;;;;;;;;5033937;27;8879;-75
2022/10/11 09:43:56;;;;;;;;;1.00;1.00;;;;;;;;5043357;27;8964;-75
2022/10/11 09:46:36;;;;;;;;;2.00;2.00;;;;;;;;5052945;27;8827;-74
2022/10/11 09:49:05;;;;;;;;;2.00;0.00;;;;;;;;5029602;27;8965;-74
2022/10/11 09:51:38;;;;;;;;;2.75;1.00;;;;;;;;5042764;27;9000;-75
2022/10/11 09:54:06;;;;;;;;;0.75;0.75;;;;;;;;5053082;27;8975;-74
2022/10/11 09:56:35;;;;;;;;;3.25;2.00;;;;;;;;5024471;27;8858;-74
2022/10/11 09:59:20;;;;;;;;;2.25;2.00;;;;;;;;5036625;27;8850;-75
2022/10/11 10:01:49;;;;;;;;;1.00;1.00;;;;;;;;5025016;27;8876;-74
2022/10/11 10:04:18;;;;;;;;;1.00;1.00;;;;;;;;5037814;27;8972;-75
2022/10/11 10:06:48;;;;;;;;;0.50;0.50;;;;;;;;5042006;27;8883;-75
2022/10/11 10:09:36;;;;;;;;;1.25;1.25;;;;;;;;5028448;27;8974;-75
2022/10/11 10:12:13;;;;;;;;;1.00;1.00;;;;;;;;5013724;27;8862;-74
2022/10/11 10:14:42;;;;;;;;;0.00;0.00;;;;;;;;5030710;27;8845;-74
2022/10/11 10:17:16;;;;;;;;;2.00;0.25;;;;;;;;5040553;27;8879;-74
2022/10/11 10:19:49;;;;;;;;;2.00;0.00;;;;;;;;5032985;27;9207;-74
2022/10/11 10:22:21;;;;;;;;;0.25;0.25;;;;;;;;5010344;27;8945;-75
2022/10/11 10:24:50;;;;;;;;;1.00;1.00;;;;;;;;5062655;27;8835;-74
2022/10/11 10:27:23;;;;;;;;;2.75;0.25;;;;;;;;5044593;27;8969;-75
2022/10/11 10:30:17;;;;;;;;;1.25;1.25;;;;;;;;5049852;27;8861;-75
2022/10/11 10:32:52;;;;;;;;;1.00;1.00;;;;;;;;5049417;27;9619;-74
2022/10/11 10:35:32;;;;;;;;;2.75;1.00;;;;;;;;5060154;27;9612;-74
2022/10/11 10:38:12;;;;;;;;;0.00;0.00;;;;;;;;5026397;27;8826;-75
2022/10/11 10:40:47;;;;;;;;;1.00;1.00;;;;;;;;5047600;27;8899;-74
2022/10/11 10:43:16;;;;;;;;;0.00;0.00;;;;;;;;5039848;27;8829;-74
2022/10/11 10:46:10;;;;;;;;;1.75;1.75;;;;;;;;5044039;27;8850;-74
2022/10/11 10:48:43;;;;;;;;;0.25;0.25;;;;;;;;5048916;27;8855;-74
2022/10/11 10:51:21;;;;;;;;;2.50;0.50;;;;;;;;5045067;27;8845;-75
2022/10/11 10:53:58;;;;;;;;;2.00;1.00;;;;;;;;5018624;27;8858;-74
2022/10/11 10:56:30;;;;;;;;;2.25;0.50;;;;;;;;5083729;27;8854;-74
2022/10/11 10:59:14;;;;;;;;;1.00;1.00;;;;;;;;5049378;27;8873;-75
2022/10/11 11:01:50;;;;;;;;;0.00;0.00;;;;;;;;5036258;27;8853;-75
2022/10/11 11:04:27;;;;;;;;;0.00;0.00;;;;;;;;5023309;27;8844;-77
2022/10/11 11:06:58;;;;;;;;;0.00;0.00;;;;;;;;5028800;28;8861;-74
2022/10/11 11:09:34;;;;;;;;;0.50;0.50;;;;;;;;5022709;27;8893;-75
2022/10/11 11:12:12;;;;;;;;;1.00;1.00;;;;;;;;5015024;27;8987;-76
2022/10/11 11:14:47;;;;;;;;;0.80;0.20;;;;;;;;5057899;27;8849;-77
2022/10/11 11:17:24;;;;;;;;;0.00;0.00;;;;;;;;5047654;28;8855;-78
2022/10/11 11:20:02;;;;;;;;;2.00;0.00;;;;;;;;5031714;27;8859;-80
2022/10/11 11:22:39;;;;;;;;;1.00;0.00;;;;;;;;5029309;27;8843;-80
2022/10/11 11:25:25;;;;;;;;;0.60;0.00;;;;;;;;5027706;28;8895;-79
2022/10/11 11:28:03;;;;;;;;;0.00;0.00;;;;;;;;5041286;27;8829;-78
2022/10/11 11:30:36;;;;;;;;;0.00;0.00;;;;;;;;5027391;27;8845;-80
2022/10/11 11:33:12;;;;;;;;;2.00;0.00;;;;;;;;5070859;27;8862;-81
2022/10/11 11:35:42;;;;;;;;;0.00;0.00;;;;;;;;5034958;28;8844;-79
2022/10/11 11:38:15;;;;;;;;;2.80;1.00;;;;;;;;5046448;28;8881;-78
2022/10/11 11:40:55;;;;;;;;;0.00;0.00;;;;;;;;5039008;27;8860;-80
2022/10/11 11:43:26;;;;;;;;;0.00;0.00;;;;;;;;5010644;28;9002;-78
2022/10/11 11:45:58;;;;;;;;;0.00;0.00;;;;;;;;5056779;27;9646;-79
2022/10/11 11:48:27;;;;;;;;;1.00;0.00;;;;;;;;5033908;27;8890;-79
2022/10/11 11:50:59;;;;;;;;;0.00;0.00;;;;;;;;5031512;27;8865;-78
2022/10/11 11:53:43;;;;;;;;;0.40;0.00;;;;;;;;5031835;27;8840;-77
2022/10/11 11:56:18;;;;;;;;;0.00;0.00;;;;;;;;5037660;28;8903;-76
2022/10/11 11:58:51;;;;;;;;;0.00;0.00;;;;;;;;5031207;28;9666;-76
2022/10/11 12:01:24;;;;;;;;;0.00;0.00;;;;;;;;5028457;28;8845;-77
2022/10/11 12:03:54;;;;;;;;;0.00;0.00;;;;;;;;5020639;28;8849;-76
2022/10/11 12:06:32;;;;;;;;;1.20;0.00;;;;;;;;5026019;27;8857;-77
2022/10/11 12:09:04;;;;;;;;;0.00;0.00;;;;;;;;5031008;27;8879;-77
2022/10/11 12:11:43;;;;;;;;;0.00;0.00;;;;;;;;5032280;27;8815;-77
2022/10/11 12:14:28;;;;;;;;;1.00;0.00;;;;;;;;5037918;27;8830;-75
2022/10/11 12:17:17;;;;;;;;;1.00;1.00;;;;;;;;5048063;27;8979;-76
2022/10/11 12:20:11;;;;;;;;;0.80;0.80;;;;;;;;5046054;27;8861;-77
2022/10/11 12:22:41;;;;;;;;;0.00;0.00;;;;;;;;5014286;27;8914;-77
2022/10/11 12:25:45;;;;;;;;;0.00;0.00;;;;;;;;5014720;27;8861;-75
2022/10/11 12:29:00;;;;;;;;;0.60;0.60;;;;;;;;5033856;27;8946;-77
2022/10/11 12:31:31;;;;;;;;;0.00;0.00;;;;;;;;5043203;27;8869;-74
2022/10/11 12:34:36;;;;;;;;;0.00;0.00;;;;;;;;5090034;27;8883;-74
2022/10/11 12:37:42;;;;;;;;;1.40;1.40;;;;;;;;5046360;27;8884;-74
2022/10/11 12:40:35;;;;;;;;;0.00;0.00;;;;;;;;5036106;27;8895;-74
2022/10/11 12:43:36;;;;;;;;;0.00;0.00;;;;;;;;5052368;27;8848;-76
2022/10/11 12:46:40;;;;;;;;;0.00;0.00;;;;;;;;5030322;27;8861;-75
2022/10/11 12:49:26;;;;;;;;;0.20;0.00;;;;;;;;5004807;28;9619;-76
2022/10/11 12:52:00;;;;;;;;;0.80;0.00;;;;;;;;5033790;27;8983;-77
2022/10/11 12:54:51;;;;;;;;;0.00;0.00;;;;;;;;5033618;27;9643;-77
2022/10/11 12:57:48;;;;;;;;;0.20;0.00;;;;;;;;5029161;27;8950;-76
2022/10/11 13:00:22;;;;;;;;;0.00;0.00;;;;;;;;4999013;28;9008;-77
2022/10/11 13:02:51;;;;;;;;;0.60;0.60;;;;;;;;5033114;27;8975;-75
2022/10/11 13:05:25;;;;;;;;;0.60;0.00;;;;;;;;5015361;27;8852;-75
2022/10/11 13:07:54;;;;;;;;;0.00;0.00;;;;;;;;5020830;27;8834;-75
2022/10/11 13:10:26;;;;;;;;;1.40;0.60;;;;;;;;5013832;27;8909;-75
2022/10/11 13:12:55;;;;;;;;;0.40;0.00;;;;;;;;5001803;28;8906;-75
2022/10/11 13:15:24;;;;;;;;;1.00;1.00;;;;;;;;5029542;27;8856;-75
2022/10/11 13:18:00;;;;;;;;;0.00;0.00;;;;;;;;5032295;27;9648;-74
2022/10/11 13:20:32;;;;;;;;;1.60;0.20;;;;;;;;5025621;27;9607;-74
2022/10/11 13:23:00;;;;;;;;;1.20;1.00;;;;;;;;5041076;27;9752;-74
2022/10/11 13:25:29;;;;;;;;;0.00;0.00;;;;;;;;5023265;27;9645;-74
2022/10/11 13:27:58;;;;;;;;;0.00;0.00;;;;;;;;5054619;27;8860;-74
2022/10/11 13:30:28;;;;;;;;;0.00;0.00;;;;;;;;5016638;27;8863;-75
2022/10/11 13:32:59;;;;;;;;;1.80;0.00;;;;;;;;5035731;27;8871;-74
2022/10/11 13:35:31;;;;;;;;;0.00;0.00;;;;;;;;5015805;27;8824;-74
2022/10/11 13:37:59;;;;;;;;;0.00;0.00;;;;;;;;5020819;27;8838;-74
2022/10/11 13:40:27;;;;;;;;;0.00;0.00;;;;;;;;5019219;28;8841;-74
2022/10/11 13:42:56;;;;;;;;;0.00;0.00;;;;;;;;5027669;27;8909;-73
2022/10/11 13:45:25;;;;;;;;;0.00;0.00;;;;;;;;5034874;27;9670;-74
2022/10/11 13:47:55;;;;;;;;;0.20;0.20;;;;;;;;5043092;27;9313;-73
2022/10/11 13:50:30;;;;;;;;;0.00;0.00;;;;;;;;5038877;27;8957;-74
2022/10/11 13:52:59;;;;;;;;;2.40;0.60;;;;;;;;5036021;27;9572;-74
2022/10/11 13:55:30;;;;;;;;;0.00;0.00;;;;;;;;5063520;27;8845;-74
2022/10/11 13:58:00;;;;;;;;;0.00;0.00;;;;;;;;5023028;27;8856;-74
2022/10/11 14:00:31;;;;;;;;;0.20;0.20;;;;;;;;5036953;27;8919;-74
2022/10/11 14:03:02;;;;;;;;;0.40;0.00;;;;;;;;5060889;27;8883;-74
2022/10/11 14:05:34;;;;;;;;;0.00;0.00;;;;;;;;5026820;27;8902;-74
2022/10/11 14:08:05;;;;;;;;;0.00;0.00;;;;;;;;5021127;27;8907;-75
2022/10/11 14:10:33;;;;;;;;;0.00;0.00;;;;;;;;5018171;28;8983;-74
2022/10/11 14:13:20;;;;;;;;;0.00;0.00;;;;;;;;5031356;27;8927;-75
2022/10/11 14:15:59;;;;;;;;;1.80;0.00;;;;;;;;5032826;27;8875;-74
2022/10/11 14:18:42;;;;;;;;;0.00;0.00;;;;;;;;5021171;27;9715;-74
2022/10/11 14:21:51;;;;;;;;;0.20;0.20;;;;;;;;5025884;27;8857;-74
2022/10/11 14:24:24;;;;;;;;;1.20;0.00;;;;;;;;5032093;27;8865;-74
2022/10/11 14:26:53;;;;;;;;;0.00;0.00;;;;;;;;5034145;27;8913;-75
2022/10/11 14:29:23;;;;;;;;;0.00;0.00;;;;;;;;5023831;27;8857;-74
2022/10/11 14:31:54;;;;;;;;;1.20;0.00;;;;;;;;5029555;27;9002;-74
2022/10/11 14:34:23;;;;;;;;;1.00;1.00;;;;;;;;5023515;27;8872;-75
2022/10/11 14:36:53;;;;;;;;;2.00;0.00;;;;;;;;5029255;27;8812;-75
2022/10/11 14:39:22;;;;;;;;;0.00;0.00;;;;;;;;5048141;27;8970;-75
2022/10/11 14:41:54;;;;;;;;;0.00;0.00;;;;;;;;5034389;27;9583;-76
2022/10/11 14:44:23;;;;;;;;;0.00;0.00;;;;;;;;5038989;27;8980;-76
2022/10/11 14:46:51;;;;;;;;;0.80;0.00;;;;;;;;5044250;27;8841;-75
2022/10/11 14:49:21;;;;;;;;;0.80;0.00;;;;;;;;5035275;27;8853;-75
2022/10/11 14:51:53;;;;;;;;;0.80;0.00;;;;;;;;5031013;27;8971;-74
2022/10/11 14:54:22;;;;;;;;;0.00;0.00;;;;;;;;5025980;27;8907;-75
2022/10/11 14:56:50;;;;;;;;;0.00;0.00;;;;;;;;5029627;27;8845;-75
2022/10/11 14:59:20;;;;;;;;;0.00;0.00;;;;;;;;5033476;27;8851;-75
2022/10/11 15:01:50;;;;;;;;;0.60;0.60;;;;;;;;5035404;27;8819;-73
2022/10/11 15:04:18;;;;;;;;;0.20;0.20;;;;;;;;5046133;27;8889;-76
2022/10/11 15:06:45;;;;;;;;;2.80;0.00;;;;;;;;5023980;27;8879;-75
2022/10/11 15:09:19;;;;;;;;;0.00;0.00;;;;;;;;5043859;27;8855;-75
2022/10/11 15:11:47;;;;;;;;;1.40;0.00;;;;;;;;5031034;27;8853;-75
2022/10/11 15:14:15;;;;;;;;;0.20;0.20;;;;;;;;5034891;27;8863;-74
2022/10/11 15:16:45;;;;;;;;;0.00;0.00;;;;;;;;5035257;27;9654;-74
2022/10/11 15:19:15;;;;;;;;;1.00;1.00;;;;;;;;5039825;28;8839;-75
2022/10/11 15:21:42;;;;;;;;;0.00;0.00;;;;;;;;5034758;27;8831;-74
2022/10/11 15:24:11;;;;;;;;;0.00;0.00;;;;;;;;5019893;27;8863;-75
2022/10/11 15:26:41;;;;;;;;;0.00;0.00;;;;;;;;5027734;27;8910;-74
2022/10/11 15:29:11;;;;;;;;;0.00;0.00;;;;;;;;5025303;28;8838;-75
2022/10/11 15:31:38;;;;;;;;;0.00;0.00;;;;;;;;5050417;27;8851;-75
2022/10/11 15:34:06;;;;;;;;;1.00;1.00;;;;;;;;5053687;27;8905;-75
2022/10/11 15:36:34;;;;;;;;;0.00;0.00;;;;;;;;5028440;27;8943;-76
2022/10/11 15:39:02;;;;;;;;;1.00;0.00;;;;;;;;5019935;27;8950;-75
2022/10/11 15:41:29;;;;;;;;;0.00;0.00;;;;;;;;5034399;28;8843;-75
2022/10/11 15:43:58;;;;;;;;;0.00;0.00;;;;;;;;5054080;27;8853;-76
2022/10/11 15:46:26;;;;;;;;;2.60;0.80;;;;;;;;5017437;27;8918;-76
2022/10/11 15:48:54;;;;;;;;;0.20;0.20;;;;;;;;5035710;27;8941;-75
2022/10/11 15:51:22;;;;;;;;;0.00;0.00;;;;;;;;5036233;27;8861;-74
2022/10/11 15:53:49;;;;;;;;;1.00;1.00;;;;;;;;5048251;27;8985;-75